sensor_id;sensor_type;location;lat;lon;timestamp;temperature;humidity
33093;DHT22;19456;46.104;12.908;2023-05-10T00:01:31;16.20;99.90
33093;DHT22;19456;46.104;12.908;2023-05-10T00:03:57;16.20;99.90
33093;DHT22;19456;46.104;12.908;2023-05-10T00:06:22;16.20;99.90
33093;DHT22;19456;46.104;12.908;2023-05-10T00:08:48;16.20;99.90
33093;DHT22;19456;46.104;12.908;2023-05-10T00:11:13;16.30;99.90
33093;DHT22;19456;46.104;12.908;2023-05-10T00:13:39;16.30;99.90
33093;DHT22;19456;46.104;12.908;2023-05-10T00:16:05;16.20;99.90
33093;DHT22;19456;46.104;12.908;2023-05-10T00:18:30;16.00;99.90
33093;DHT22;19456;46.104;12.908;2023-05-10T00:20:56;15.90;99.90
33093;DHT22;19456;46.104;12.908;2023-05-10T00:23:21;15.90;99.90
33093;DHT22;19456;46.104;12.908;2023-05-10T00:25:47;15.90;99.90
33093;DHT22;19456;46.104;12.908;2023-05-10T00:28:13;15.80;99.90
33093;DHT22;19456;46.104;12.908;2023-05-10T00:30:38;15.80;99.90
33093;DHT22;19456;46.104;12.908;2023-05-10T00:33:04;15.80;99.90
33093;DHT22;19456;46.104;12.908;2023-05-10T00:35:29;15.60;99.90
33093;DHT22;19456;46.104;12.908;2023-05-10T00:37:55;15.50;99.90
33093;DHT22;19456;46.104;12.908;2023-05-10T00:40:21;15.50;99.90
33093;DHT22;19456;46.104;12.908;2023-05-10T00:42:46;15.50;99.90
33093;DHT22;19456;46.104;12.908;2023-05-10T00:45:12;15.30;99.90
33093;DHT22;19456;46.104;12.908;2023-05-10T00:47:37;15.20;99.90
33093;DHT22;19456;46.104;12.908;2023-05-10T00:50:03;15.10;99.90
33093;DHT22;19456;46.104;12.908;2023-05-10T00:52:29;15.10;99.90
33093;DHT22;19456;46.104;12.908;2023-05-10T00:54:55;15.10;99.90
33093;DHT22;19456;46.104;12.908;2023-05-10T00:57:21;15.00;99.90
33093;DHT22;19456;46.104;12.908;2023-05-10T00:59:47;14.80;99.90
33093;DHT22;19456;46.104;12.908;2023-05-10T01:02:13;14.70;99.90
33093;DHT22;19456;46.104;12.908;2023-05-10T01:04:41;14.60;99.90
33093;DHT22;19456;46.104;12.908;2023-05-10T01:07:08;14.60;99.90
33093;DHT22;19456;46.104;12.908;2023-05-10T01:09:33;14.50;99.90
33093;DHT22;19456;46.104;12.908;2023-05-10T01:11:59;14.50;99.90
33093;DHT22;19456;46.104;12.908;2023-05-10T01:14:25;14.40;99.90
33093;DHT22;19456;46.104;12.908;2023-05-10T01:16:51;14.40;99.90
33093;DHT22;19456;46.104;12.908;2023-05-10T01:19:27;14.40;99.90
33093;DHT22;19456;46.104;12.908;2023-05-10T01:24:40;14.30;99.90
33093;DHT22;19456;46.104;12.908;2023-05-10T01:35:07;14.50;99.90
33093;DHT22;19456;46.104;12.908;2023-05-10T01:40:13;14.60;99.90
33093;DHT22;19456;46.104;12.908;2023-05-10T01:42:42;14.50;99.90
33093;DHT22;19456;46.104;12.908;2023-05-10T01:47:43;14.30;99.90
33093;DHT22;19456;46.104;12.908;2023-05-10T01:50:10;14.10;99.90
33093;DHT22;19456;46.104;12.908;2023-05-10T01:52:44;14.00;99.90
33093;DHT22;19456;46.104;12.908;2023-05-10T01:55:13;13.90;99.90
33093;DHT22;19456;46.104;12.908;2023-05-10T01:57:40;13.90;99.90
33093;DHT22;19456;46.104;12.908;2023-05-10T02:00:07;13.90;99.90
33093;DHT22;19456;46.104;12.908;2023-05-10T02:02:35;13.80;99.90
33093;DHT22;19456;46.104;12.908;2023-05-10T02:05:02;13.80;99.90
33093;DHT22;19456;46.104;12.908;2023-05-10T02:07:29;13.80;99.90
33093;DHT22;19456;46.104;12.908;2023-05-10T02:09:55;13.70;99.90
33093;DHT22;19456;46.104;12.908;2023-05-10T02:12:21;13.80;99.90
33093;DHT22;19456;46.104;12.908;2023-05-10T02:14:47;13.90;99.90
33093;DHT22;19456;46.104;12.908;2023-05-10T02:17:14;13.90;99.90
33093;DHT22;19456;46.104;12.908;2023-05-10T02:19:40;14.00;99.90
33093;DHT22;19456;46.104;12.908;2023-05-10T02:22:06;14.20;99.90
33093;DHT22;19456;46.104;12.908;2023-05-10T02:24:33;14.30;99.90
33093;DHT22;19456;46.104;12.908;2023-05-10T02:27:00;14.30;99.90
33093;DHT22;19456;46.104;12.908;2023-05-10T02:29:27;14.40;99.90
33093;DHT22;19456;46.104;12.908;2023-05-10T02:31:54;14.50;99.90
33093;DHT22;19456;46.104;12.908;2023-05-10T02:34:21;14.60;99.90
33093;DHT22;19456;46.104;12.908;2023-05-10T02:36:47;14.70;99.90
33093;DHT22;19456;46.104;12.908;2023-05-10T02:39:13;14.80;99.90
33093;DHT22;19456;46.104;12.908;2023-05-10T02:41:40;15.00;99.90
33093;DHT22;19456;46.104;12.908;2023-05-10T02:44:06;15.00;99.90
33093;DHT22;19456;46.104;12.908;2023-05-10T02:46:33;14.90;99.90
33093;DHT22;19456;46.104;12.908;2023-05-10T02:48:59;14.90;99.90
33093;DHT22;19456;46.104;12.908;2023-05-10T02:51:25;14.60;99.90
33093;DHT22;19456;46.104;12.908;2023-05-10T02:53:53;14.60;99.90
33093;DHT22;19456;46.104;12.908;2023-05-10T02:56:25;14.50;99.90
33093;DHT22;19456;46.104;12.908;2023-05-10T02:58:53;14.60;99.90
33093;DHT22;19456;46.104;12.908;2023-05-10T03:01:20;14.80;99.90
33093;DHT22;19456;46.104;12.908;2023-05-10T03:03:45;14.80;99.90
33093;DHT22;19456;46.104;12.908;2023-05-10T03:06:11;14.90;99.90
33093;DHT22;19456;46.104;12.908;2023-05-10T03:08:36;14.90;99.90
33093;DHT22;19456;46.104;12.908;2023-05-10T03:14:06;15.00;99.90
33093;DHT22;19456;46.104;12.908;2023-05-10T03:16:36;15.00;99.90
33093;DHT22;19456;46.104;12.908;2023-05-10T03:19:27;15.00;99.90
33093;DHT22;19456;46.104;12.908;2023-05-10T03:21:52;15.00;99.90
33093;DHT22;19456;46.104;12.908;2023-05-10T03:24:20;15.00;99.90
33093;DHT22;19456;46.104;12.908;2023-05-10T03:26:46;14.80;99.90
33093;DHT22;19456;46.104;12.908;2023-05-10T03:29:12;14.40;99.90
33093;DHT22;19456;46.104;12.908;2023-05-10T03:31:39;14.10;99.90
33093;DHT22;19456;46.104;12.908;2023-05-10T03:34:05;14.00;99.90
33093;DHT22;19456;46.104;12.908;2023-05-10T03:36:31;14.00;99.90
33093;DHT22;19456;46.104;12.908;2023-05-10T03:38:57;14.10;99.90
33093;DHT22;19456;46.104;12.908;2023-05-10T03:41:22;14.30;99.90
33093;DHT22;19456;46.104;12.908;2023-05-10T03:43:48;14.30;99.90
33093;DHT22;19456;46.104;12.908;2023-05-10T03:46:13;14.30;99.90
33093;DHT22;19456;46.104;12.908;2023-05-10T03:48:39;14.30;99.90
33093;DHT22;19456;46.104;12.908;2023-05-10T03:51:04;14.30;99.90
33093;DHT22;19456;46.104;12.908;2023-05-10T03:53:30;14.30;99.90
33093;DHT22;19456;46.104;12.908;2023-05-10T03:55:56;14.30;99.90
33093;DHT22;19456;46.104;12.908;2023-05-10T03:58:21;14.20;99.90
33093;DHT22;19456;46.104;12.908;2023-05-10T04:00:47;14.30;99.90
33093;DHT22;19456;46.104;12.908;2023-05-10T04:03:12;14.40;99.90
33093;DHT22;19456;46.104;12.908;2023-05-10T04:05:38;14.30;99.90
33093;DHT22;19456;46.104;12.908;2023-05-10T04:08:04;14.30;99.90
33093;DHT22;19456;46.104;12.908;2023-05-10T04:10:29;14.10;99.90
33093;DHT22;19456;46.104;12.908;2023-05-10T04:12:56;14.20;99.90
33093;DHT22;19456;46.104;12.908;2023-05-10T04:15:21;14.40;99.90
33093;DHT22;19456;46.104;12.908;2023-05-10T04:17:47;14.40;99.90
33093;DHT22;19456;46.104;12.908;2023-05-10T04:20:13;14.50;99.90
33093;DHT22;19456;46.104;12.908;2023-05-10T04:22:38;14.50;99.90
33093;DHT22;19456;46.104;12.908;2023-05-10T04:25:04;14.40;99.90
33093;DHT22;19456;46.104;12.908;2023-05-10T04:27:30;14.30;99.90
33093;DHT22;19456;46.104;12.908;2023-05-10T04:29:56;14.30;99.90
33093;DHT22;19456;46.104;12.908;2023-05-10T04:32:22;14.10;99.90
33093;DHT22;19456;46.104;12.908;2023-05-10T04:34:47;14.00;99.90
33093;DHT22;19456;46.104;12.908;2023-05-10T04:37:13;13.90;99.90
33093;DHT22;19456;46.104;12.908;2023-05-10T04:39:38;13.90;99.90
33093;DHT22;19456;46.104;12.908;2023-05-10T04:42:04;13.90;99.90
33093;DHT22;19456;46.104;12.908;2023-05-10T04:44:31;14.10;99.90
33093;DHT22;19456;46.104;12.908;2023-05-10T04:46:57;14.30;99.90
33093;DHT22;19456;46.104;12.908;2023-05-10T04:49:22;14.40;99.90
33093;DHT22;19456;46.104;12.908;2023-05-10T04:51:48;14.40;99.90
33093;DHT22;19456;46.104;12.908;2023-05-10T04:54:13;14.40;99.90
33093;DHT22;19456;46.104;12.908;2023-05-10T04:56:39;14.40;99.90
33093;DHT22;19456;46.104;12.908;2023-05-10T04:59:04;14.60;99.90
33093;DHT22;19456;46.104;12.908;2023-05-10T05:01:30;14.70;99.90
33093;DHT22;19456;46.104;12.908;2023-05-10T05:03:56;14.80;99.90
33093;DHT22;19456;46.104;12.908;2023-05-10T05:06:21;14.70;99.90
33093;DHT22;19456;46.104;12.908;2023-05-10T05:08:47;14.60;99.90
33093;DHT22;19456;46.104;12.908;2023-05-10T05:11:14;14.50;99.90
33093;DHT22;19456;46.104;12.908;2023-05-10T05:13:40;14.50;99.90
33093;DHT22;19456;46.104;12.908;2023-05-10T05:16:05;14.40;99.90
33093;DHT22;19456;46.104;12.908;2023-05-10T05:18:31;14.40;99.90
33093;DHT22;19456;46.104;12.908;2023-05-10T05:20:56;14.40;99.90
33093;DHT22;19456;46.104;12.908;2023-05-10T05:23:22;14.30;99.90
33093;DHT22;19456;46.104;12.908;2023-05-10T05:25:53;14.40;99.90
33093;DHT22;19456;46.104;12.908;2023-05-10T05:28:19;14.50;99.90
33093;DHT22;19456;46.104;12.908;2023-05-10T05:30:44;14.60;99.90
33093;DHT22;19456;46.104;12.908;2023-05-10T05:33:14;14.70;99.90
33093;DHT22;19456;46.104;12.908;2023-05-10T05:35:40;14.70;99.90
33093;DHT22;19456;46.104;12.908;2023-05-10T05:38:06;14.70;99.90
33093;DHT22;19456;46.104;12.908;2023-05-10T05:40:32;14.70;99.90
33093;DHT22;19456;46.104;12.908;2023-05-10T05:42:57;14.70;99.90
33093;DHT22;19456;46.104;12.908;2023-05-10T05:45:23;14.70;99.90
33093;DHT22;19456;46.104;12.908;2023-05-10T05:47:48;14.80;99.90
33093;DHT22;19456;46.104;12.908;2023-05-10T05:50:14;14.90;99.90
33093;DHT22;19456;46.104;12.908;2023-05-10T05:52:39;14.90;99.90
33093;DHT22;19456;46.104;12.908;2023-05-10T05:55:06;14.90;99.90
33093;DHT22;19456;46.104;12.908;2023-05-10T05:57:33;15.00;99.90
33093;DHT22;19456;46.104;12.908;2023-05-10T06:00:01;15.20;99.90
33093;DHT22;19456;46.104;12.908;2023-05-10T06:02:28;15.20;99.90
33093;DHT22;19456;46.104;12.908;2023-05-10T06:04:53;15.30;99.90
33093;DHT22;19456;46.104;12.908;2023-05-10T06:07:19;15.20;99.90
33093;DHT22;19456;46.104;12.908;2023-05-10T06:09:45;15.40;99.90
33093;DHT22;19456;46.104;12.908;2023-05-10T06:12:11;15.40;99.90
33093;DHT22;19456;46.104;12.908;2023-05-10T06:14:37;15.50;99.90
33093;DHT22;19456;46.104;12.908;2023-05-10T06:17:02;15.50;99.90
33093;DHT22;19456;46.104;12.908;2023-05-10T06:19:30;15.60;99.90
33093;DHT22;19456;46.104;12.908;2023-05-10T06:21:56;15.50;99.90
33093;DHT22;19456;46.104;12.908;2023-05-10T06:24:21;15.50;99.90
33093;DHT22;19456;46.104;12.908;2023-05-10T06:26:47;15.50;99.90
33093;DHT22;19456;46.104;12.908;2023-05-10T06:29:14;15.60;99.90
33093;DHT22;19456;46.104;12.908;2023-05-10T06:31:40;15.50;99.90
33093;DHT22;19456;46.104;12.908;2023-05-10T06:34:06;15.60;99.90
33093;DHT22;19456;46.104;12.908;2023-05-10T06:36:33;15.70;99.90
33093;DHT22;19456;46.104;12.908;2023-05-10T06:38:59;15.80;99.90
33093;DHT22;19456;46.104;12.908;2023-05-10T06:41:24;15.90;99.90
33093;DHT22;19456;46.104;12.908;2023-05-10T06:43:50;16.00;99.90
33093;DHT22;19456;46.104;12.908;2023-05-10T06:46:15;16.10;99.90
33093;DHT22;19456;46.104;12.908;2023-05-10T06:48:41;16.10;99.90
33093;DHT22;19456;46.104;12.908;2023-05-10T06:51:06;16.10;99.90
33093;DHT22;19456;46.104;12.908;2023-05-10T06:53:32;16.10;99.90
33093;DHT22;19456;46.104;12.908;2023-05-10T06:55:58;15.90;99.90
33093;DHT22;19456;46.104;12.908;2023-05-10T06:58:23;15.80;99.90
33093;DHT22;19456;46.104;12.908;2023-05-10T07:00:49;15.80;99.90
33093;DHT22;19456;46.104;12.908;2023-05-10T07:03:14;15.80;99.90
33093;DHT22;19456;46.104;12.908;2023-05-10T07:05:40;15.90;99.90
33093;DHT22;19456;46.104;12.908;2023-05-10T07:08:06;16.00;99.90
33093;DHT22;19456;46.104;12.908;2023-05-10T07:10:32;16.10;99.90
33093;DHT22;19456;46.104;12.908;2023-05-10T07:12:58;16.00;99.90
33093;DHT22;19456;46.104;12.908;2023-05-10T07:15:23;16.00;99.90
33093;DHT22;19456;46.104;12.908;2023-05-10T07:17:49;16.00;99.90
33093;DHT22;19456;46.104;12.908;2023-05-10T07:20:15;16.00;99.90
33093;DHT22;19456;46.104;12.908;2023-05-10T07:22:40;16.10;99.90
33093;DHT22;19456;46.104;12.908;2023-05-10T07:25:06;16.20;99.90
33093;DHT22;19456;46.104;12.908;2023-05-10T07:27:32;16.10;99.90
33093;DHT22;19456;46.104;12.908;2023-05-10T07:29:57;16.10;99.90
33093;DHT22;19456;46.104;12.908;2023-05-10T07:32:23;16.00;99.90
33093;DHT22;19456;46.104;12.908;2023-05-10T07:34:49;16.10;99.90
33093;DHT22;19456;46.104;12.908;2023-05-10T07:37:15;16.10;99.90
33093;DHT22;19456;46.104;12.908;2023-05-10T07:39:40;16.20;99.90
33093;DHT22;19456;46.104;12.908;2023-05-10T07:42:06;16.30;99.90
33093;DHT22;19456;46.104;12.908;2023-05-10T07:44:31;16.10;99.90
33093;DHT22;19456;46.104;12.908;2023-05-10T07:46:57;16.10;99.90
33093;DHT22;19456;46.104;12.908;2023-05-10T07:49:22;16.20;99.90
33093;DHT22;19456;46.104;12.908;2023-05-10T07:51:51;16.30;99.90
33093;DHT22;19456;46.104;12.908;2023-05-10T07:54:17;16.40;99.90
33093;DHT22;19456;46.104;12.908;2023-05-10T07:56:42;16.50;99.90
33093;DHT22;19456;46.104;12.908;2023-05-10T07:59:16;16.60;99.90
33093;DHT22;19456;46.104;12.908;2023-05-10T08:01:42;16.50;99.90
33093;DHT22;19456;46.104;12.908;2023-05-10T08:04:08;16.40;99.90
33093;DHT22;19456;46.104;12.908;2023-05-10T08:06:34;16.50;99.90
33093;DHT22;19456;46.104;12.908;2023-05-10T08:08:59;16.50;99.90
33093;DHT22;19456;46.104;12.908;2023-05-10T08:11:26;16.40;99.90
33093;DHT22;19456;46.104;12.908;2023-05-10T08:13:53;16.50;99.90
33093;DHT22;19456;46.104;12.908;2023-05-10T08:16:19;16.40;99.90
33093;DHT22;19456;46.104;12.908;2023-05-10T08:18:45;16.50;99.90
33093;DHT22;19456;46.104;12.908;2023-05-10T08:21:12;16.50;99.90
33093;DHT22;19456;46.104;12.908;2023-05-10T08:23:37;16.50;99.90
33093;DHT22;19456;46.104;12.908;2023-05-10T08:26:03;16.30;99.90
33093;DHT22;19456;46.104;12.908;2023-05-10T08:28:29;16.20;99.90
33093;DHT22;19456;46.104;12.908;2023-05-10T08:30:54;16.20;99.90
33093;DHT22;19456;46.104;12.908;2023-05-10T08:33:20;16.20;99.90
33093;DHT22;19456;46.104;12.908;2023-05-10T08:35:46;16.00;99.90
33093;DHT22;19456;46.104;12.908;2023-05-10T08:38:11;16.00;99.90
33093;DHT22;19456;46.104;12.908;2023-05-10T08:40:38;16.10;99.90
33093;DHT22;19456;46.104;12.908;2023-05-10T08:43:10;16.10;99.90
33093;DHT22;19456;46.104;12.908;2023-05-10T08:45:40;16.10;99.90
33093;DHT22;19456;46.104;12.908;2023-05-10T08:48:07;16.00;99.90
33093;DHT22;19456;46.104;12.908;2023-05-10T08:50:35;16.10;99.90
33093;DHT22;19456;46.104;12.908;2023-05-10T08:53:01;16.20;99.90
33093;DHT22;19456;46.104;12.908;2023-05-10T08:55:29;16.50;99.90
33093;DHT22;19456;46.104;12.908;2023-05-10T08:57:55;16.70;99.90
33093;DHT22;19456;46.104;12.908;2023-05-10T09:00:21;16.70;99.90
33093;DHT22;19456;46.104;12.908;2023-05-10T09:02:49;16.60;99.90
33093;DHT22;19456;46.104;12.908;2023-05-10T09:05:15;16.40;99.90
33093;DHT22;19456;46.104;12.908;2023-05-10T09:07:41;16.50;99.90
33093;DHT22;19456;46.104;12.908;2023-05-10T09:10:07;16.40;99.90
33093;DHT22;19456;46.104;12.908;2023-05-10T09:12:34;16.20;99.90
33093;DHT22;19456;46.104;12.908;2023-05-10T09:15:02;16.00;99.90
33093;DHT22;19456;46.104;12.908;2023-05-10T09:17:29;16.00;99.90
33093;DHT22;19456;46.104;12.908;2023-05-10T09:20:02;15.80;99.90
33093;DHT22;19456;46.104;12.908;2023-05-10T09:22:28;15.70;99.90
33093;DHT22;19456;46.104;12.908;2023-05-10T09:25:10;15.70;99.90
33093;DHT22;19456;46.104;12.908;2023-05-10T09:27:36;15.60;99.90
33093;DHT22;19456;46.104;12.908;2023-05-10T09:30:03;15.80;99.90
33093;DHT22;19456;46.104;12.908;2023-05-10T09:32:41;15.70;99.90
33093;DHT22;19456;46.104;12.908;2023-05-10T09:35:08;15.50;99.90
33093;DHT22;19456;46.104;12.908;2023-05-10T09:37:34;15.30;99.90
33093;DHT22;19456;46.104;12.908;2023-05-10T09:40:00;15.30;99.90
33093;DHT22;19456;46.104;12.908;2023-05-10T09:42:25;15.30;99.90
33093;DHT22;19456;46.104;12.908;2023-05-10T09:44:51;15.10;99.90
33093;DHT22;19456;46.104;12.908;2023-05-10T09:47:17;15.00;99.90
33093;DHT22;19456;46.104;12.908;2023-05-10T09:49:43;14.90;99.90
33093;DHT22;19456;46.104;12.908;2023-05-10T09:52:08;15.00;99.90
33093;DHT22;19456;46.104;12.908;2023-05-10T09:54:34;15.00;99.90
33093;DHT22;19456;46.104;12.908;2023-05-10T09:57:00;15.00;99.90
33093;DHT22;19456;46.104;12.908;2023-05-10T09:59:26;14.90;99.90
33093;DHT22;19456;46.104;12.908;2023-05-10T10:01:53;14.80;99.90
33093;DHT22;19456;46.104;12.908;2023-05-10T10:04:20;15.00;99.90
33093;DHT22;19456;46.104;12.908;2023-05-10T10:06:46;15.20;99.90
33093;DHT22;19456;46.104;12.908;2023-05-10T10:09:12;15.30;99.90
33093;DHT22;19456;46.104;12.908;2023-05-10T10:11:38;15.10;99.90
33093;DHT22;19456;46.104;12.908;2023-05-10T10:14:04;15.20;99.90
33093;DHT22;19456;46.104;12.908;2023-05-10T10:16:30;15.30;99.90
33093;DHT22;19456;46.104;12.908;2023-05-10T10:18:56;15.50;99.90
33093;DHT22;19456;46.104;12.908;2023-05-10T10:21:22;15.50;99.90
33093;DHT22;19456;46.104;12.908;2023-05-10T10:23:47;15.60;99.90
33093;DHT22;19456;46.104;12.908;2023-05-10T10:26:13;15.60;99.90
33093;DHT22;19456;46.104;12.908;2023-05-10T10:28:42;15.30;99.90
33093;DHT22;19456;46.104;12.908;2023-05-10T10:31:32;15.20;99.90
33093;DHT22;19456;46.104;12.908;2023-05-10T10:34:00;15.20;99.90
33093;DHT22;19456;46.104;12.908;2023-05-10T10:36:28;15.10;99.90
33093;DHT22;19456;46.104;12.908;2023-05-10T10:38:55;15.10;99.90
33093;DHT22;19456;46.104;12.908;2023-05-10T10:49:37;15.20;99.90
33093;DHT22;19456;46.104;12.908;2023-05-10T10:52:12;15.20;99.90
33093;DHT22;19456;46.104;12.908;2023-05-10T10:54:38;15.10;99.90
33093;DHT22;19456;46.104;12.908;2023-05-10T10:57:10;15.10;99.90
33093;DHT22;19456;46.104;12.908;2023-05-10T10:59:40;15.10;99.90
33093;DHT22;19456;46.104;12.908;2023-05-10T11:02:06;15.20;99.90
33093;DHT22;19456;46.104;12.908;2023-05-10T11:04:40;15.20;99.90
33093;DHT22;19456;46.104;12.908;2023-05-10T11:07:16;15.20;99.90
33093;DHT22;19456;46.104;12.908;2023-05-10T11:09:41;15.30;99.90
33093;DHT22;19456;46.104;12.908;2023-05-10T11:12:10;15.40;99.90
33093;DHT22;19456;46.104;12.908;2023-05-10T11:14:35;15.30;99.90
33093;DHT22;19456;46.104;12.908;2023-05-10T11:17:01;15.40;99.90
33093;DHT22;19456;46.104;12.908;2023-05-10T11:19:27;15.50;99.90
33093;DHT22;19456;46.104;12.908;2023-05-10T11:24:31;15.50;99.90
33093;DHT22;19456;46.104;12.908;2023-05-10T11:26:57;15.50;99.90
33093;DHT22;19456;46.104;12.908;2023-05-10T11:29:22;15.60;99.90
33093;DHT22;19456;46.104;12.908;2023-05-10T11:31:48;15.50;99.90
33093;DHT22;19456;46.104;12.908;2023-05-10T11:34:28;15.60;99.90
33093;DHT22;19456;46.104;12.908;2023-05-10T11:36:54;15.40;99.90
33093;DHT22;19456;46.104;12.908;2023-05-10T11:39:20;15.40;99.90
33093;DHT22;19456;46.104;12.908;2023-05-10T11:41:49;15.30;99.90
33093;DHT22;19456;46.104;12.908;2023-05-10T11:44:15;15.30;99.90
33093;DHT22;19456;46.104;12.908;2023-05-10T11:46:41;15.20;99.90
33093;DHT22;19456;46.104;12.908;2023-05-10T11:49:06;15.10;99.90
33093;DHT22;19456;46.104;12.908;2023-05-10T11:51:35;15.00;99.90
33093;DHT22;19456;46.104;12.908;2023-05-10T11:54:02;15.10;99.90
33093;DHT22;19456;46.104;12.908;2023-05-10T11:56:32;15.10;99.90
33093;DHT22;19456;46.104;12.908;2023-05-10T11:58:57;15.20;99.90
33093;DHT22;19456;46.104;12.908;2023-05-10T12:01:23;15.20;99.90
33093;DHT22;19456;46.104;12.908;2023-05-10T12:03:50;15.20;99.90
33093;DHT22;19456;46.104;12.908;2023-05-10T12:06:17;15.40;99.90
33093;DHT22;19456;46.104;12.908;2023-05-10T12:08:46;15.10;99.90
33093;DHT22;19456;46.104;12.908;2023-05-10T12:11:12;15.10;99.90
33093;DHT22;19456;46.104;12.908;2023-05-10T12:13:39;14.80;99.90
33093;DHT22;19456;46.104;12.908;2023-05-10T12:16:16;14.90;99.90
33093;DHT22;19456;46.104;12.908;2023-05-10T12:18:42;14.90;99.90
33093;DHT22;19456;46.104;12.908;2023-05-10T12:21:11;15.00;99.90
33093;DHT22;19456;46.104;12.908;2023-05-10T12:23:37;15.20;99.90
33093;DHT22;19456;46.104;12.908;2023-05-10T12:26:03;15.30;99.90
33093;DHT22;19456;46.104;12.908;2023-05-10T12:28:32;15.30;99.90
33093;DHT22;19456;46.104;12.908;2023-05-10T12:30:59;15.40;99.90
33093;DHT22;19456;46.104;12.908;2023-05-10T12:33:25;15.50;99.90
33093;DHT22;19456;46.104;12.908;2023-05-10T12:35:51;15.70;99.90
33093;DHT22;19456;46.104;12.908;2023-05-10T12:38:35;15.90;99.90
33093;DHT22;19456;46.104;12.908;2023-05-10T12:41:07;16.10;99.90
33093;DHT22;19456;46.104;12.908;2023-05-10T12:43:33;16.20;99.90
33093;DHT22;19456;46.104;12.908;2023-05-10T12:46:03;16.30;99.90
33093;DHT22;19456;46.104;12.908;2023-05-10T12:48:29;16.40;99.90
33093;DHT22;19456;46.104;12.908;2023-05-10T12:50:56;16.50;99.90
33093;DHT22;19456;46.104;12.908;2023-05-10T12:53:22;16.40;99.90
33093;DHT22;19456;46.104;12.908;2023-05-10T12:55:47;16.40;99.90
33093;DHT22;19456;46.104;12.908;2023-05-10T12:58:13;16.20;99.90
33093;DHT22;19456;46.104;12.908;2023-05-10T13:00:39;16.20;99.90
33093;DHT22;19456;46.104;12.908;2023-05-10T13:03:04;16.10;99.90
33093;DHT22;19456;46.104;12.908;2023-05-10T13:05:33;16.00;99.90
33093;DHT22;19456;46.104;12.908;2023-05-10T13:07:58;15.80;99.90
33093;DHT22;19456;46.104;12.908;2023-05-10T13:10:24;15.70;99.90
33093;DHT22;19456;46.104;12.908;2023-05-10T13:12:50;15.50;99.90
33093;DHT22;19456;46.104;12.908;2023-05-10T13:15:16;15.50;99.90
33093;DHT22;19456;46.104;12.908;2023-05-10T13:17:41;15.40;99.90
33093;DHT22;19456;46.104;12.908;2023-05-10T13:20:08;15.40;99.90
33093;DHT22;19456;46.104;12.908;2023-05-10T13:22:34;15.40;99.90
33093;DHT22;19456;46.104;12.908;2023-05-10T13:25:00;15.40;99.90
33093;DHT22;19456;46.104;12.908;2023-05-10T13:27:26;15.30;99.90
33093;DHT22;19456;46.104;12.908;2023-05-10T13:29:51;15.40;99.90
33093;DHT22;19456;46.104;12.908;2023-05-10T13:32:17;15.40;99.90
33093;DHT22;19456;46.104;12.908;2023-05-10T13:34:42;15.40;99.90
33093;DHT22;19456;46.104;12.908;2023-05-10T13:37:08;15.40;99.90
33093;DHT22;19456;46.104;12.908;2023-05-10T13:39:34;15.40;99.90
33093;DHT22;19456;46.104;12.908;2023-05-10T13:41:59;15.40;99.90
33093;DHT22;19456;46.104;12.908;2023-05-10T13:44:25;15.40;99.90
33093;DHT22;19456;46.104;12.908;2023-05-10T13:46:51;15.40;99.90
33093;DHT22;19456;46.104;12.908;2023-05-10T13:49:16;15.40;99.90
33093;DHT22;19456;46.104;12.908;2023-05-10T13:51:42;15.40;99.90
33093;DHT22;19456;46.104;12.908;2023-05-10T13:54:08;15.40;99.90
33093;DHT22;19456;46.104;12.908;2023-05-10T13:56:34;15.30;99.90
33093;DHT22;19456;46.104;12.908;2023-05-10T13:58:59;15.30;99.90
33093;DHT22;19456;46.104;12.908;2023-05-10T14:01:25;15.40;99.90
33093;DHT22;19456;46.104;12.908;2023-05-10T14:03:51;15.40;99.90
33093;DHT22;19456;46.104;12.908;2023-05-10T14:06:16;15.20;99.90
33093;DHT22;19456;46.104;12.908;2023-05-10T14:08:42;15.20;99.90
33093;DHT22;19456;46.104;12.908;2023-05-10T14:11:08;15.20;99.90
33093;DHT22;19456;46.104;12.908;2023-05-10T14:13:34;15.20;99.90
33093;DHT22;19456;46.104;12.908;2023-05-10T14:16:00;15.30;99.90
33093;DHT22;19456;46.104;12.908;2023-05-10T14:18:26;15.30;99.90
33093;DHT22;19456;46.104;12.908;2023-05-10T14:20:53;15.30;99.90
33093;DHT22;19456;46.104;12.908;2023-05-10T14:23:19;15.40;99.90
33093;DHT22;19456;46.104;12.908;2023-05-10T14:25:50;15.30;99.90
33093;DHT22;19456;46.104;12.908;2023-05-10T14:28:16;15.10;99.90
33093;DHT22;19456;46.104;12.908;2023-05-10T14:30:42;15.10;99.90
33093;DHT22;19456;46.104;12.908;2023-05-10T14:33:10;15.00;99.90
33093;DHT22;19456;46.104;12.908;2023-05-10T14:35:35;15.00;99.90
33093;DHT22;19456;46.104;12.908;2023-05-10T14:38:02;14.90;99.90
33093;DHT22;19456;46.104;12.908;2023-05-10T14:40:28;15.00;99.90
33093;DHT22;19456;46.104;12.908;2023-05-10T14:42:54;15.10;99.90
33093;DHT22;19456;46.104;12.908;2023-05-10T14:45:20;14.90;99.90
33093;DHT22;19456;46.104;12.908;2023-05-10T14:47:46;14.90;99.90
33093;DHT22;19456;46.104;12.908;2023-05-10T14:50:11;14.80;99.90
33093;DHT22;19456;46.104;12.908;2023-05-10T14:52:37;14.80;99.90
33093;DHT22;19456;46.104;12.908;2023-05-10T14:55:02;14.60;99.90
33093;DHT22;19456;46.104;12.908;2023-05-10T14:57:28;14.60;99.90
33093;DHT22;19456;46.104;12.908;2023-05-10T14:59:55;14.70;99.90
33093;DHT22;19456;46.104;12.908;2023-05-10T15:02:21;14.60;99.90
33093;DHT22;19456;46.104;12.908;2023-05-10T15:04:47;14.70;99.90
33093;DHT22;19456;46.104;12.908;2023-05-10T15:07:12;14.80;99.90
33093;DHT22;19456;46.104;12.908;2023-05-10T15:09:40;14.80;99.90
33093;DHT22;19456;46.104;12.908;2023-05-10T15:12:06;14.90;99.90
33093;DHT22;19456;46.104;12.908;2023-05-10T15:14:31;14.90;99.90
33093;DHT22;19456;46.104;12.908;2023-05-10T15:16:58;15.00;99.90
33093;DHT22;19456;46.104;12.908;2023-05-10T15:19:24;15.10;99.90
33093;DHT22;19456;46.104;12.908;2023-05-10T15:21:49;15.10;99.90
33093;DHT22;19456;46.104;12.908;2023-05-10T15:24:15;15.10;99.90
33093;DHT22;19456;46.104;12.908;2023-05-10T15:26:40;15.00;99.90
33093;DHT22;19456;46.104;12.908;2023-05-10T15:29:06;14.90;99.90
33093;DHT22;19456;46.104;12.908;2023-05-10T15:31:32;14.80;99.90
33093;DHT22;19456;46.104;12.908;2023-05-10T15:34:00;14.70;99.90
33093;DHT22;19456;46.104;12.908;2023-05-10T15:36:25;14.60;99.90
33093;DHT22;19456;46.104;12.908;2023-05-10T15:38:51;14.60;99.90
33093;DHT22;19456;46.104;12.908;2023-05-10T15:41:16;14.50;99.90